Time;durP1;ratioP1;P1;durP2;ratioP2;P2;SDS_P1;SDS_P2;PMS_P1;PMS_P2;Temp;Humidity;BMP_temperature;BMP_pressure;BME280_temperature;BME280_humidity;BME280_pressure;Samples;Min_cycle;Max_cycle;Signal;HPM_P1;HPM_P2
2023/07/29 00:01:35;;;;;;;;;;;;;;;24.69;100.00;100593.81;5085026;28;19947;-60
2023/07/29 00:04:02;;;;;;;;;;;;;;;25.19;100.00;100589.75;5095991;28;19912;-60
2023/07/29 00:06:27;;;;;;;;;;;;;;;24.81;100.00;100579.72;5105143;28;19920;-60
2023/07/29 00:08:52;;;;;;;;;;;;;;;24.38;100.00;100580.59;5100669;28;19916;-59
2023/07/29 00:11:18;;;;;;;;;;;;;;;24.20;100.00;100568.53;5091763;28;19976;-60
2023/07/29 00:13:43;;;;;;;;;;;;;;;27.11;100.00;100574.75;5091841;28;19921;-60
2023/07/29 00:16:09;;;;;;;;;;;;;;;24.96;100.00;100567.69;5094631;28;19921;-59
2023/07/29 00:18:34;;;;;;;;;;;;;;;24.70;100.00;100562.63;5103010;28;19928;-59
2023/07/29 00:21:00;;;;;;;;;;;;;;;24.53;100.00;100562.34;5103281;28;19920;-61
2023/07/29 00:23:25;;;;;;;;;;;;;;;24.37;100.00;100569.97;5097599;28;19944;-60
2023/07/29 00:25:50;;;;;;;;;;;;;;;24.47;100.00;100578.81;5088348;28;19916;-60
2023/07/29 00:28:16;;;;;;;;;;;;;;;24.33;100.00;100581.47;5095719;28;19976;-61
2023/07/29 00:30:43;;;;;;;;;;;;;;;20.99;100.00;100587.78;5087748;28;19916;-60
2023/07/29 00:33:09;;;;;;;;;;;;;;;22.43;100.00;100580.28;5089443;28;19952;-59
2023/07/29 00:35:34;;;;;;;;;;;;;;;22.55;100.00;100579.13;5082080;28;19924;-60
2023/07/29 00:38:00;;;;;;;;;;;;;;;22.28;100.00;100575.75;5081697;28;19917;-60
2023/07/29 00:40:27;;;;;;;;;;;;;;;25.76;100.00;100575.84;5096127;28;19923;-59
2023/07/29 00:42:53;;;;;;;;;;;;;;;25.88;100.00;100578.06;5096377;28;19928;-59
2023/07/29 00:45:19;;;;;;;;;;;;;;;26.72;100.00;100577.84;5096196;28;19920;-60
2023/07/29 00:47:44;;;;;;;;;;;;;;;24.71;100.00;100575.19;5114253;28;19939;-60
2023/07/29 00:50:11;;;;;;;;;;;;;;;24.12;100.00;100580.94;5078586;28;19927;-60
2023/07/29 00:52:37;;;;;;;;;;;;;;;24.20;100.00;100571.28;5112344;28;19916;-60
2023/07/29 00:55:04;;;;;;;;;;;;;;;24.25;100.00;100546.63;5096069;28;19921;-59
2023/07/29 00:57:30;;;;;;;;;;;;;;;24.53;100.00;100543.22;5096011;28;19913;-60
2023/07/29 00:59:55;;;;;;;;;;;;;;;24.81;100.00;100549.63;5096152;28;19979;-59
2023/07/29 01:02:21;;;;;;;;;;;;;;;24.47;100.00;100548.75;5095819;28;19920;-60
2023/07/29 01:04:57;;;;;;;;;;;;;;;24.17;100.00;100559.00;5112020;28;19976;-60
2023/07/29 01:07:28;;;;;;;;;;;;;;;23.86;100.00;100562.13;5101408;28;19916;-59
2023/07/29 01:09:58;;;;;;;;;;;;;;;23.93;100.00;100561.78;5095619;28;19917;-60
2023/07/29 01:12:28;;;;;;;;;;;;;;;23.73;100.00;100576.47;5077809;28;19917;-60
2023/07/29 01:14:59;;;;;;;;;;;;;;;23.87;100.00;100563.75;5095634;28;19921;-61
2023/07/29 01:17:46;;;;;;;;;;;;;;;24.34;100.00;100563.97;5105431;28;19992;-61
2023/07/29 01:20:14;;;;;;;;;;;;;;;24.99;100.00;100560.81;5111635;28;19917;-60
2023/07/29 01:22:40;;;;;;;;;;;;;;;24.73;100.00;100566.66;5077813;28;19920;-60
2023/07/29 01:25:06;;;;;;;;;;;;;;;24.85;100.00;100568.97;5111581;28;19931;-59
2023/07/29 01:27:31;;;;;;;;;;;;;;;24.54;100.00;100561.22;5080076;28;19955;-59
2023/07/29 01:29:57;;;;;;;;;;;;;;;25.09;100.00;100568.84;5095170;28;19916;-60
2023/07/29 01:32:23;;;;;;;;;;;;;;;24.96;100.00;100562.22;5077958;28;19916;-60
2023/07/29 01:34:53;;;;;;;;;;;;;;;25.44;100.00;100563.03;5111289;28;19943;-60
2023/07/29 01:37:22;;;;;;;;;;;;;;;25.35;100.00;100560.97;5111322;28;19927;-59
2023/07/29 01:39:49;;;;;;;;;;;;;;;26.22;100.00;100556.00;5085410;28;19916;-59
2023/07/29 01:42:15;;;;;;;;;;;;;;;27.07;100.00;100554.53;5100992;28;19924;-59
2023/07/29 01:44:42;;;;;;;;;;;;;;;22.66;100.00;100553.47;5111479;28;19916;-59
2023/07/29 01:47:07;;;;;;;;;;;;;;;22.65;100.00;100557.28;5120162;28;19916;-59
2023/07/29 01:49:33;;;;;;;;;;;;;;;23.03;100.00;100551.25;5077742;28;19917;-59
2023/07/29 01:51:59;;;;;;;;;;;;;;;23.09;100.00;100552.81;5111183;28;19927;-58
2023/07/29 01:54:25;;;;;;;;;;;;;;;22.89;100.00;100545.66;5094909;28;19938;-59
2023/07/29 01:56:51;;;;;;;;;;;;;;;22.75;100.00;100545.50;5110998;28;19996;-59
2023/07/29 01:59:16;;;;;;;;;;;;;;;22.81;100.00;100544.34;5111097;28;19943;-59
2023/07/29 02:01:42;;;;;;;;;;;;;;;23.01;100.00;100543.34;5110977;28;19912;-60
2023/07/29 02:04:08;;;;;;;;;;;;;;;22.99;100.00;100545.53;5111027;28;19924;-60
2023/07/29 02:06:33;;;;;;;;;;;;;;;23.00;100.00;100552.63;5113394;28;19915;-60
2023/07/29 02:08:59;;;;;;;;;;;;;;;23.29;100.00;100549.09;5077531;28;19917;-59
2023/07/29 02:11:27;;;;;;;;;;;;;;;23.25;100.00;100548.06;5094921;28;19943;-59
2023/07/29 02:13:53;;;;;;;;;;;;;;;23.40;100.00;100544.34;5111098;28;20003;-59
2023/07/29 02:16:20;;;;;;;;;;;;;;;23.42;100.00;100546.81;5095021;28;19931;-59
2023/07/29 02:18:45;;;;;;;;;;;;;;;23.26;100.00;100548.88;5099198;28;19980;-59
2023/07/29 02:21:11;;;;;;;;;;;;;;;23.51;100.00;100542.31;5110887;28;19916;-60
2023/07/29 02:23:36;;;;;;;;;;;;;;;23.18;100.00;100544.84;5097067;28;19956;-60
2023/07/29 02:26:02;;;;;;;;;;;;;;;23.30;100.00;100544.47;5077120;28;19917;-59
2023/07/29 02:28:27;;;;;;;;;;;;;;;23.18;100.00;100540.19;5076964;28;19943;-59
2023/07/29 02:31:32;;;;;;;;;;;;;;;23.03;100.00;100535.69;5085179;28;19916;-59
2023/07/29 02:33:57;;;;;;;;;;;;;;;23.24;100.00;100530.03;5039354;28;19921;-59
2023/07/29 02:36:23;;;;;;;;;;;;;;;23.49;100.00;100519.97;5038540;28;19929;-59
2023/07/29 02:38:49;;;;;;;;;;;;;;;23.21;100.00;100530.63;5057221;28;19987;-60
2023/07/29 02:41:16;;;;;;;;;;;;;;;23.10;100.00;100526.38;5110342;28;20091;-59
2023/07/29 02:43:42;;;;;;;;;;;;;;;23.14;100.00;100522.75;5113883;28;19919;-59
2023/07/29 02:46:08;;;;;;;;;;;;;;;22.75;100.00;100521.75;5100199;28;19916;-59
2023/07/29 02:48:33;;;;;;;;;;;;;;;23.01;100.00;100521.53;5077127;28;19959;-60
2023/07/29 02:50:59;;;;;;;;;;;;;;;22.52;100.00;100519.75;5110565;28;19917;-59
2023/07/29 02:53:24;;;;;;;;;;;;;;;22.72;100.00;100518.78;5076925;28;19916;-59
2023/07/29 02:55:50;;;;;;;;;;;;;;;22.70;100.00;100523.72;5086028;28;19928;-59
2023/07/29 02:58:15;;;;;;;;;;;;;;;22.76;100.00;100519.88;5080840;28;19921;-60
2023/07/29 03:00:41;;;;;;;;;;;;;;;22.84;100.00;100516.50;5114395;28;19923;-60
2023/07/29 03:03:08;;;;;;;;;;;;;;;22.81;100.00;100521.72;5082701;28;19935;-60
2023/07/29 03:05:33;;;;;;;;;;;;;;;22.79;100.00;100508.38;5083111;28;19913;-61
2023/07/29 03:07:59;;;;;;;;;;;;;;;22.92;100.00;100510.44;5080677;28;19927;-59
2023/07/29 03:10:25;;;;;;;;;;;;;;;23.01;100.00;100513.34;5100405;28;19946;-59
2023/07/29 03:12:51;;;;;;;;;;;;;;;22.78;100.00;100510.28;5080785;28;19938;-60
2023/07/29 03:15:17;;;;;;;;;;;;;;;22.70;100.00;100515.53;5113816;28;19920;-60
2023/07/29 03:17:42;;;;;;;;;;;;;;;22.76;100.00;100525.31;5098633;28;19917;-60
2023/07/29 03:20:08;;;;;;;;;;;;;;;22.70;100.00;100521.81;5097889;28;19916;-59
2023/07/29 03:22:33;;;;;;;;;;;;;;;22.61;100.00;100515.34;5113844;28;19924;-59
2023/07/29 03:24:59;;;;;;;;;;;;;;;22.82;100.00;100510.53;5080192;28;19991;-59
2023/07/29 03:27:25;;;;;;;;;;;;;;;22.94;100.00;100512.88;5102603;28;19927;-60
2023/07/29 03:29:50;;;;;;;;;;;;;;;22.90;100.00;100515.34;5087270;28;19984;-57
2023/07/29 03:32:15;;;;;;;;;;;;;;;22.52;100.00;100514.31;5097590;28;19920;-60
2023/07/29 03:34:41;;;;;;;;;;;;;;;22.78;100.00;100513.00;5120470;28;19927;-60
2023/07/29 03:37:06;;;;;;;;;;;;;;;22.66;100.00;100515.31;5115295;28;19916;-61
2023/07/29 03:39:32;;;;;;;;;;;;;;;22.80;100.00;100510.00;5104407;28;19923;-61
2023/07/29 03:41:57;;;;;;;;;;;;;;;23.70;100.00;100506.06;5102356;28;19916;-59
2023/07/29 03:44:23;;;;;;;;;;;;;;;23.11;100.00;100515.16;5113543;28;19916;-60
2023/07/29 03:46:48;;;;;;;;;;;;;;;22.63;100.00;100521.34;5113524;28;19965;-60
2023/07/29 03:49:16;;;;;;;;;;;;;;;23.13;100.00;100523.88;5102324;28;21202;-60
2023/07/29 03:51:42;;;;;;;;;;;;;;;23.72;100.00;100514.78;5079930;28;19917;-60
2023/07/29 03:54:08;;;;;;;;;;;;;;;23.78;100.00;100516.38;5098270;28;19916;-60
2023/07/29 03:56:35;;;;;;;;;;;;;;;23.33;100.00;100530.25;5079765;28;19920;-59
2023/07/29 03:59:06;;;;;;;;;;;;;;;23.44;100.00;100533.69;5116190;28;19943;-59
2023/07/29 04:01:32;;;;;;;;;;;;;;;23.59;100.00;100525.31;5104479;28;19912;-60
2023/07/29 04:03:59;;;;;;;;;;;;;;;23.43;100.00;100526.59;5084797;28;19924;-59
2023/07/29 04:06:24;;;;;;;;;;;;;;;23.14;100.00;100521.97;5079328;28;19916;-59
2023/07/29 04:08:50;;;;;;;;;;;;;;;23.15;100.00;100515.41;5113024;28;19976;-59
2023/07/29 04:11:16;;;;;;;;;;;;;;;23.11;100.00;100515.16;5113020;28;19938;-60
2023/07/29 04:13:42;;;;;;;;;;;;;;;22.91;100.00;100499.81;5096779;28;19955;-59
2023/07/29 04:16:07;;;;;;;;;;;;;;;22.94;100.00;100493.78;5105541;28;19928;-58
2023/07/29 04:18:33;;;;;;;;;;;;;;;22.92;100.00;100493.28;5090704;28;19916;-60
2023/07/29 04:20:59;;;;;;;;;;;;;;;22.59;100.00;100495.72;5079346;28;19920;-59
2023/07/29 04:23:25;;;;;;;;;;;;;;;23.19;100.00;100502.81;5112708;28;19952;-60
2023/07/29 04:25:51;;;;;;;;;;;;;;;23.19;100.00;100503.66;5103626;28;19924;-59
2023/07/29 04:28:17;;;;;;;;;;;;;;;22.85;100.00;100495.53;5121545;28;19937;-59
2023/07/29 04:30:43;;;;;;;;;;;;;;;22.94;100.00;100492.97;5096785;28;19916;-59
2023/07/29 04:33:08;;;;;;;;;;;;;;;22.95;100.00;100510.94;5078787;28;19923;-62
2023/07/29 04:35:36;;;;;;;;;;;;;;;22.80;100.00;100511.91;5082850;28;19924;-59
2023/07/29 04:38:01;;;;;;;;;;;;;;;22.57;100.00;100528.72;5112366;28;19938;-59
2023/07/29 04:40:27;;;;;;;;;;;;;;;22.52;100.00;100530.66;5096405;28;20002;-58
2023/07/29 04:42:52;;;;;;;;;;;;;;;22.53;100.00;100529.56;5096471;28;19923;-60
2023/07/29 04:45:18;;;;;;;;;;;;;;;22.44;100.00;100529.31;5097209;28;19927;-59
2023/07/29 04:47:43;;;;;;;;;;;;;;;22.54;100.00;100517.56;5096166;28;19923;-60
2023/07/29 04:50:09;;;;;;;;;;;;;;;22.72;100.00;100525.06;5112349;28;19984;-59
2023/07/29 04:52:36;;;;;;;;;;;;;;;22.67;100.00;100535.19;5112257;28;19920;-58
2023/07/29 04:55:01;;;;;;;;;;;;;;;22.36;100.00;100541.63;5095973;28;19930;-58
2023/07/29 04:57:27;;;;;;;;;;;;;;;22.44;100.00;100535.59;5078841;28;19917;-60
2023/07/29 04:59:54;;;;;;;;;;;;;;;22.81;100.00;100533.44;5096191;28;19917;-58
2023/07/29 05:02:20;;;;;;;;;;;;;;;22.51;100.00;100540.75;5088374;28;19998;-58
2023/07/29 05:04:46;;;;;;;;;;;;;;;22.74;100.00;100555.56;5096055;28;19916;-59
2023/07/29 05:07:12;;;;;;;;;;;;;;;22.20;100.00;100544.47;5095753;28;19952;-57
2023/07/29 05:09:37;;;;;;;;;;;;;;;22.48;100.00;100542.13;5123110;28;19916;-59
2023/07/29 05:12:03;;;;;;;;;;;;;;;22.57;100.00;100549.69;5111499;28;19967;-59
2023/07/29 05:14:28;;;;;;;;;;;;;;;22.56;100.00;100548.06;5096551;28;19953;-59
2023/07/29 05:16:54;;;;;;;;;;;;;;;22.92;100.00;100553.25;5083246;28;19951;-59
2023/07/29 05:19:19;;;;;;;;;;;;;;;23.32;100.00;100553.19;5104724;28;19930;-59
2023/07/29 05:21:45;;;;;;;;;;;;;;;24.75;100.00;100564.47;5111708;28;19961;-59
2023/07/29 05:24:17;;;;;;;;;;;;;;;24.32;100.00;100568.09;5111761;28;19938;-60
2023/07/29 05:26:42;;;;;;;;;;;;;;;26.19;100.00;100563.72;5082079;28;19980;-60
2023/07/29 05:29:08;;;;;;;;;;;;;;;25.77;100.00;100562.94;5117107;28;19916;-60
2023/07/29 05:31:34;;;;;;;;;;;;;;;24.00;100.00;100555.97;5095520;28;19931;-60
2023/07/29 05:34:00;;;;;;;;;;;;;;;23.84;100.00;100553.41;5078072;28;19920;-60
2023/07/29 05:36:25;;;;;;;;;;;;;;;22.99;100.00;100556.44;5077894;28;20019;-59
2023/07/29 05:38:51;;;;;;;;;;;;;;;23.01;100.00;100548.78;5081338;28;19900;-59
2023/07/29 05:41:17;;;;;;;;;;;;;;;22.69;100.00;100552.88;5111306;28;19917;-60
2023/07/29 05:43:43;;;;;;;;;;;;;;;22.87;100.00;100550.56;5095185;28;19947;-59
2023/07/29 05:46:09;;;;;;;;;;;;;;;23.38;100.00;100556.66;5077660;28;19916;-60
2023/07/29 05:48:35;;;;;;;;;;;;;;;23.33;100.00;100557.53;5115674;28;19948;-60
2023/07/29 05:51:02;;;;;;;;;;;;;;;23.52;100.00;100554.84;5077954;28;19912;-60
2023/07/29 05:53:27;;;;;;;;;;;;;;;19.71;100.00;100553.72;5077693;28;19959;-60
2023/07/29 05:55:53;;;;;;;;;;;;;;;19.36;100.00;100564.09;5084435;28;19924;-60
2023/07/29 05:58:19;;;;;;;;;;;;;;;19.52;100.00;100564.19;5077517;28;19916;-60
2023/07/29 06:00:44;;;;;;;;;;;;;;;19.55;100.00;100561.75;5079183;28;19952;-60
2023/07/29 06:03:10;;;;;;;;;;;;;;;19.67;100.00;100558.03;5111080;28;19916;-60
2023/07/29 06:05:35;;;;;;;;;;;;;;;19.84;100.00;100558.66;5095264;28;19948;-59
2023/07/29 06:08:02;;;;;;;;;;;;;;;19.76;100.00;100559.16;5102637;28;19935;-59
2023/07/29 06:10:27;;;;;;;;;;;;;;;19.97;100.00;100543.81;5077413;28;19916;-57
2023/07/29 06:12:53;;;;;;;;;;;;;;;19.96;100.00;100555.75;5116958;28;19921;-60
2023/07/29 06:15:21;;;;;;;;;;;;;;;19.91;100.00;100561.97;5099415;28;19920;-59
2023/07/29 06:17:47;;;;;;;;;;;;;;;20.11;100.00;100554.16;5095035;28;19923;-59
2023/07/29 06:20:13;;;;;;;;;;;;;;;20.31;100.00;100553.44;5077232;28;19916;-59
2023/07/29 06:22:38;;;;;;;;;;;;;;;20.18;100.00;100557.44;5095109;28;19916;-59
2023/07/29 06:25:04;;;;;;;;;;;;;;;19.87;100.00;100562.72;5111104;28;19989;-59
2023/07/29 06:27:30;;;;;;;;;;;;;;;20.34;100.00;100559.13;5094910;28;19920;-59
2023/07/29 06:29:56;;;;;;;;;;;;;;;20.24;100.00;100569.97;5102321;28;19927;-60
2023/07/29 06:32:21;;;;;;;;;;;;;;;20.20;100.00;100569.66;5099260;28;19920;-61
2023/07/29 06:34:47;;;;;;;;;;;;;;;20.23;100.00;100567.50;5098871;28;19921;-59
2023/07/29 06:37:12;;;;;;;;;;;;;;;20.14;100.00;100573.47;5110521;28;20046;-59
2023/07/29 06:39:38;;;;;;;;;;;;;;;20.10;100.00;100564.22;5098989;28;19923;-57
2023/07/29 06:42:03;;;;;;;;;;;;;;;20.12;100.00;100559.34;5098650;28;19923;-60
2023/07/29 06:44:28;;;;;;;;;;;;;;;20.28;100.00;100559.38;5098632;28;19932;-60
2023/07/29 06:46:54;;;;;;;;;;;;;;;20.36;100.00;100561.56;5108164;28;19917;-59
2023/07/29 06:49:20;;;;;;;;;;;;;;;24.00;100.00;100559.47;5109598;28;19955;-59
2023/07/29 06:51:45;;;;;;;;;;;;;;;24.74;100.00;100562.81;5100362;28;19920;-60
2023/07/29 06:54:11;;;;;;;;;;;;;;;25.11;100.00;100569.34;5104237;28;19923;-59
2023/07/29 06:56:36;;;;;;;;;;;;;;;24.44;100.00;100570.41;5098542;28;19920;-60
2023/07/29 06:59:02;;;;;;;;;;;;;;;24.69;100.00;100571.94;5106902;28;19916;-60
2023/07/29 07:01:28;;;;;;;;;;;;;;;24.69;100.00;100579.31;5095773;28;19935;-59
2023/07/29 07:03:54;;;;;;;;;;;;;;;24.62;100.00;100583.25;5102596;28;19927;-59
2023/07/29 07:06:24;;;;;;;;;;;;;;;25.15;100.00;100588.72;5097776;28;19939;-59
2023/07/29 07:08:50;;;;;;;;;;;;;;;25.30;100.00;100590.38;5086507;28;19917;-60
2023/07/29 07:11:16;;;;;;;;;;;;;;;24.59;100.00;100589.31;5097818;28;19920;-59
2023/07/29 07:13:41;;;;;;;;;;;;;;;24.85;100.00;100588.09;5102433;28;19916;-59
2023/07/29 07:16:06;;;;;;;;;;;;;;;24.88;100.00;100584.78;5091154;28;19980;-59
2023/07/29 07:18:32;;;;;;;;;;;;;;;24.79;100.00;100586.56;5100837;28;19916;-59
2023/07/29 07:20:57;;;;;;;;;;;;;;;24.38;100.00;100590.72;5097845;28;19920;-60
2023/07/29 07:23:23;;;;;;;;;;;;;;;24.93;100.00;100581.97;5097377;28;19983;-59
2023/07/29 07:25:48;;;;;;;;;;;;;;;25.21;100.00;100582.03;5098961;28;19947;-59
2023/07/29 07:28:13;;;;;;;;;;;;;;;25.59;100.00;100587.38;5086753;28;19916;-61
2023/07/29 07:30:41;;;;;;;;;;;;;;;25.21;100.00;100584.78;5086542;28;20007;-59
2023/07/29 07:33:07;;;;;;;;;;;;;;;25.15;100.00;100578.56;5097796;28;19916;-60
2023/07/29 07:35:32;;;;;;;;;;;;;;;25.32;100.00;100580.72;5099861;28;19928;-60
2023/07/29 07:37:59;;;;;;;;;;;;;;;25.31;100.00;100576.38;5103812;28;19927;-60
2023/07/29 07:40:25;;;;;;;;;;;;;;;25.15;100.00;100596.94;5096749;28;19916;-59
2023/07/29 07:42:50;;;;;;;;;;;;;;;25.39;100.00;100585.03;5097638;28;19979;-59
2023/07/29 07:45:17;;;;;;;;;;;;;;;25.24;100.00;100592.38;5097486;28;19920;-60
2023/07/29 07:47:43;;;;;;;;;;;;;;;25.19;100.00;100592.47;5103169;28;19916;-59
2023/07/29 07:50:08;;;;;;;;;;;;;;;25.43;100.00;100583.28;5080107;28;19970;-59
2023/07/29 07:52:34;;;;;;;;;;;;;;;25.67;100.00;100590.53;5097522;28;19916;-59
2023/07/29 07:54:59;;;;;;;;;;;;;;;26.16;100.00;100599.09;5097316;28;19920;-59
2023/07/29 07:57:25;;;;;;;;;;;;;;;26.14;100.00;100604.09;5099376;28;19916;-59
2023/07/29 07:59:52;;;;;;;;;;;;;;;26.16;100.00;100599.09;5101059;28;19979;-60
2023/07/29 08:02:18;;;;;;;;;;;;;;;25.62;100.00;100595.00;5097099;28;19920;-61
2023/07/29 08:04:43;;;;;;;;;;;;;;;26.23;100.00;100610.50;5097124;28;19921;-59
2023/07/29 08:07:09;;;;;;;;;;;;;;;25.90;100.00;100622.38;5097722;28;19921;-61
2023/07/29 08:09:35;;;;;;;;;;;;;;;26.09;100.00;100606.94;5098108;28;19955;-59
2023/07/29 08:12:00;;;;;;;;;;;;;;;26.11;100.00;100615.66;5097237;28;19917;-60
2023/07/29 08:14:26;;;;;;;;;;;;;;;25.54;100.00;100603.91;5107502;28;19927;-60
2023/07/29 08:16:52;;;;;;;;;;;;;;;26.73;100.00;100617.88;5096959;28;19947;-60
2023/07/29 08:19:17;;;;;;;;;;;;;;;26.95;100.00;100607.25;5101408;28;19916;-60
2023/07/29 08:21:43;;;;;;;;;;;;;;;26.86;100.00;100613.47;5103554;28;19938;-60
2023/07/29 08:24:08;;;;;;;;;;;;;;;26.59;100.00;100622.59;5103848;28;19923;-61
2023/07/29 08:26:33;;;;;;;;;;;;;;;26.28;100.00;100623.28;5103496;28;19939;-59
2023/07/29 08:28:59;;;;;;;;;;;;;;;26.75;100.00;100615.63;5096697;28;19917;-59
2023/07/29 08:31:25;;;;;;;;;;;;;;;26.34;100.00;100627.53;5096622;28;19954;-59
2023/07/29 08:33:50;;;;;;;;;;;;;;;26.00;100.00;100617.81;5096571;28;19916;-58
2023/07/29 08:36:16;;;;;;;;;;;;;;;26.31;100.00;100617.19;5099454;28;19939;-60
2023/07/29 08:38:41;;;;;;;;;;;;;;;25.76;100.00;100618.81;5096422;28;19946;-60
2023/07/29 08:41:18;;;;;;;;;;;;;;;22.99;100.00;100621.91;5101574;28;19917;-59
2023/07/29 08:43:52;;;;;;;;;;;;;;;22.14;100.00;100613.66;5085831;28;19916;-60
2023/07/29 08:46:18;;;;;;;;;;;;;;;25.48;100.00;100621.53;5096133;28;19988;-60
2023/07/29 08:48:45;;;;;;;;;;;;;;;25.78;100.00;100622.06;5096408;28;19924;-60
2023/07/29 08:51:12;;;;;;;;;;;;;;;25.56;100.00;100615.34;5097274;28;19924;-61
2023/07/29 08:53:38;;;;;;;;;;;;;;;25.45;100.00;100620.19;5095607;28;19980;-59
2023/07/29 08:56:05;;;;;;;;;;;;;;;26.29;100.00;100624.88;5111956;28;19932;-59
2023/07/29 08:58:31;;;;;;;;;;;;;;;26.49;100.00;100613.47;5106576;28;19917;-60
2023/07/29 09:00:57;;;;;;;;;;;;;;;26.68;100.00;100619.94;5107936;28;19916;-59
2023/07/29 09:03:22;;;;;;;;;;;;;;;26.74;100.00;100618.69;5099695;28;19920;-60
2023/07/29 09:05:48;;;;;;;;;;;;;;;26.76;100.00;100622.75;5082456;28;19947;-59
2023/07/29 09:08:14;;;;;;;;;;;;;;;26.79;100.00;100620.50;5095763;28;19983;-60
2023/07/29 09:10:39;;;;;;;;;;;;;;;26.92;100.00;100619.66;5091850;28;19928;-60
2023/07/29 09:13:05;;;;;;;;;;;;;;;27.52;100.00;100625.03;5091278;28;19916;-60
2023/07/29 09:15:32;;;;;;;;;;;;;;;27.86;100.00;100631.78;5090446;28;19929;-60
2023/07/29 09:17:58;;;;;;;;;;;;;;;27.53;100.00;100630.22;5090804;28;19919;-60
2023/07/29 09:20:27;;;;;;;;;;;;;;;25.10;100.00;100602.47;5090116;28;19920;-60
2023/07/29 09:22:54;;;;;;;;;;;;;;;24.11;100.00;100600.38;5095781;28;19917;-60
2023/07/29 09:25:23;;;;;;;;;;;;;;;23.87;100.00;100612.91;5095423;28;19931;-60
2023/07/29 09:27:49;;;;;;;;;;;;;;;24.58;100.00;100612.28;5096707;28;19917;-60
2023/07/29 09:30:17;;;;;;;;;;;;;;;24.36;100.00;100606.59;5097797;28;19917;-59
2023/07/29 09:32:43;;;;;;;;;;;;;;;24.92;100.00;100604.97;5095510;28;19913;-59
2023/07/29 09:35:12;;;;;;;;;;;;;;;26.99;100.00;100598.09;5096417;28;19928;-60
2023/07/29 09:37:38;;;;;;;;;;;;;;;28.77;100.00;100610.09;5096052;28;19980;-58
2023/07/29 09:40:04;;;;;;;;;;;;;;;29.13;100.00;100613.63;5097404;28;19922;-60
2023/07/29 09:42:30;;;;;;;;;;;;;;;27.65;100.00;100606.81;5095413;28;19962;-59
2023/07/29 09:44:55;;;;;;;;;;;;;;;27.85;100.00;100611.75;5088075;28;19920;-59
2023/07/29 09:47:25;;;;;;;;;;;;;;;29.09;100.00;100607.16;5074152;28;19927;-59
2023/07/29 09:49:51;;;;;;;;;;;;;;;29.04;100.00;100613.63;5098031;28;19916;-59
2023/07/29 09:52:18;;;;;;;;;;;;;;;29.01;100.00;100611.53;5085446;28;19938;-59
2023/07/29 09:54:44;;;;;;;;;;;;;;;28.11;100.00;100613.75;5087896;28;19917;-60
2023/07/29 09:57:17;;;;;;;;;;;;;;;27.99;100.00;100608.88;5090725;28;19916;-61
2023/07/29 09:59:42;;;;;;;;;;;;;;;27.52;100.00;100606.63;5082124;28;19972;-59
2023/07/29 10:02:12;;;;;;;;;;;;;;;28.08;100.00;100597.91;5096430;28;19917;-59
2023/07/29 10:04:39;;;;;;;;;;;;;;;27.34;100.00;100609.25;5090933;28;19984;-59
2023/07/29 10:07:05;;;;;;;;;;;;;;;27.72;100.00;100601.69;5071129;28;19917;-60
2023/07/29 10:09:30;;;;;;;;;;;;;;;28.32;100.00;100608.47;5094955;28;20031;-58
2023/07/29 10:11:57;;;;;;;;;;;;;;;28.27;100.00;100621.56;5096637;28;19921;-59
2023/07/29 10:14:22;;;;;;;;;;;;;;;28.22;100.00;100613.47;5090910;28;19927;-60
2023/07/29 10:16:49;;;;;;;;;;;;;;;28.25;100.00;100608.13;5087283;28;19920;-60
2023/07/29 10:19:16;;;;;;;;;;;;;;;28.21;100.00;100617.34;5083092;28;19917;-59
2023/07/29 10:21:44;;;;;;;;;;;;;;;27.54;100.00;100618.09;5079596;28;19952;-60
2023/07/29 10:24:14;;;;;;;;;;;;;;;27.99;100.00;100606.13;5087132;28;19923;-59
2023/07/29 10:26:41;;;;;;;;;;;;;;;29.14;100.00;100603.44;5088162;28;19912;-59
2023/07/29 10:29:08;;;;;;;;;;;;;;;29.84;100.00;100603.16;5091252;28;20386;-59
2023/07/29 10:31:35;;;;;;;;;;;;;;;30.18;100.00;100595.84;5091982;28;19917;-59
2023/07/29 10:34:01;;;;;;;;;;;;;;;30.72;100.00;100604.53;5091870;28;20006;-59
2023/07/29 10:36:27;;;;;;;;;;;;;;;30.66;100.00;100609.44;5089415;28;19932;-59
2023/07/29 10:38:53;;;;;;;;;;;;;;;29.50;100.00;100604.94;5084769;28;19923;-60
2023/07/29 10:41:18;;;;;;;;;;;;;;;29.20;100.00;100607.59;5097592;28;19952;-59
2023/07/29 10:43:44;;;;;;;;;;;;;;;28.81;100.00;100609.47;5094250;28;19939;-61
2023/07/29 10:46:17;;;;;;;;;;;;;;;29.76;100.00;100612.31;5090482;28;19927;-59
2023/07/29 10:48:43;;;;;;;;;;;;;;;29.74;100.00;100620.88;5095593;28;19917;-60
2023/07/29 10:51:29;;;;;;;;;;;;;;;28.65;100.00;100614.63;5092214;28;19913;-60
2023/07/29 10:53:58;;;;;;;;;;;;;;;29.01;100.00;100614.28;5092092;28;19928;-60
2023/07/29 10:56:25;;;;;;;;;;;;;;;29.24;100.00;100618.78;5095212;28;19948;-60
2023/07/29 10:58:51;;;;;;;;;;;;;;;28.48;100.00;100629.97;5088104;28;19923;-61
2023/07/29 11:01:26;;;;;;;;;;;;;;;28.48;100.00;100622.56;5094259;28;19983;-60
2023/07/29 11:04:11;;;;;;;;;;;;;;;28.17;100.00;100615.25;5090828;28;19920;-59
2023/07/29 11:06:56;;;;;;;;;;;;;;;27.57;100.00;100633.94;5087616;28;19921;-59
2023/07/29 11:09:41;;;;;;;;;;;;;;;26.31;100.00;100634.44;5093981;28;19978;-60
2023/07/29 11:12:26;;;;;;;;;;;;;;;25.84;100.00;100631.00;5088567;28;19929;-60
2023/07/29 11:14:51;;;;;;;;;;;;;;;25.27;100.00;100621.88;5094696;28;19923;-60
2023/07/29 11:17:18;;;;;;;;;;;;;;;25.27;100.00;100627.34;5091413;28;19943;-60
2023/07/29 11:19:44;;;;;;;;;;;;;;;25.43;100.00;100635.31;5096365;28;19917;-61
2023/07/29 11:22:09;;;;;;;;;;;;;;;25.39;100.00;100645.22;5094402;28;19939;-61
2023/07/29 11:24:35;;;;;;;;;;;;;;;24.71;100.00;100646.28;5088265;28;19920;-61
2023/07/29 11:27:00;;;;;;;;;;;;;;;24.38;100.00;100646.16;5094017;28;19942;-60
2023/07/29 11:29:26;;;;;;;;;;;;;;;23.88;100.00;100654.69;5097022;28;19927;-61
2023/07/29 11:31:52;;;;;;;;;;;;;;;23.99;100.00;100644.44;5095192;28;19976;-60
2023/07/29 11:34:20;;;;;;;;;;;;;;;24.19;100.00;100625.09;5093127;28;19916;-60
2023/07/29 11:36:46;;;;;;;;;;;;;;;24.53;100.00;100638.88;5089798;28;19920;-61
2023/07/29 11:39:11;;;;;;;;;;;;;;;24.69;100.00;100643.03;5091222;28;19962;-60
2023/07/29 11:41:37;;;;;;;;;;;;;;;25.52;100.00;100638.97;5092214;28;19928;-60
2023/07/29 11:44:03;;;;;;;;;;;;;;;24.91;100.00;100636.13;5096535;28;19916;-60
2023/07/29 11:46:28;;;;;;;;;;;;;;;24.91;100.00;100628.75;5093758;28;19929;-61
2023/07/29 11:48:54;;;;;;;;;;;;;;;24.93;100.00;100631.22;5097458;28;19923;-62
2023/07/29 11:51:19;;;;;;;;;;;;;;;24.86;100.00;100638.97;5088809;28;19916;-61
2023/07/29 11:53:45;;;;;;;;;;;;;;;24.89;100.00;100636.44;5088350;28;19916;-62
2023/07/29 11:56:12;;;;;;;;;;;;;;;24.64;100.00;100632.13;5080551;28;19921;-62
2023/07/29 11:58:38;;;;;;;;;;;;;;;24.51;100.00;100646.56;5096289;28;19916;-61
2023/07/29 12:01:04;;;;;;;;;;;;;;;25.05;100.00;100636.22;5095052;28;19943;-61
2023/07/29 12:03:30;;;;;;;;;;;;;;;24.89;100.00;100635.63;5086701;28;19916;-61
2023/07/29 12:05:56;;;;;;;;;;;;;;;25.26;100.00;100633.09;5094728;28;19924;-60
2023/07/29 12:08:23;;;;;;;;;;;;;;;24.36;100.00;100633.91;5097005;28;19979;-61
2023/07/29 12:10:48;;;;;;;;;;;;;;;24.55;100.00;100634.72;5098067;28;19916;-61
2023/07/29 12:13:14;;;;;;;;;;;;;;;24.60;100.00;100634.66;5108776;28;19992;-62
2023/07/29 12:15:40;;;;;;;;;;;;;;;24.64;100.00;100634.88;5096754;28;19921;-61
2023/07/29 12:18:06;;;;;;;;;;;;;;;25.81;100.00;100631.63;5095771;28;19947;-62
2023/07/29 12:20:31;;;;;;;;;;;;;;;26.41;100.00;100633.41;5096808;28;19923;-61
2023/07/29 12:22:57;;;;;;;;;;;;;;;26.45;100.00;100628.94;5098919;28;19916;-61
2023/07/29 12:25:23;;;;;;;;;;;;;;;25.99;100.00;100632.63;5099445;28;19916;-61